sensor_id;sensor_type;location;lat;lon;timestamp;P1;durP1;ratioP1;P2;durP2;ratioP2
4980;SDS011;2507;50.392;7.482;2024-01-27T00:01:15;8.50;;;2.83;;
4980;SDS011;2507;50.392;7.482;2024-01-27T00:03:40;5.53;;;2.50;;
4980;SDS011;2507;50.392;7.482;2024-01-27T00:06:06;11.23;;;2.50;;
4980;SDS011;2507;50.392;7.482;2024-01-27T00:08:31;10.50;;;3.03;;
4980;SDS011;2507;50.392;7.482;2024-01-27T00:10:56;6.00;;;1.90;;
4980;SDS011;2507;50.392;7.482;2024-01-27T00:13:21;7.27;;;2.50;;
4980;SDS011;2507;50.392;7.482;2024-01-27T00:15:47;9.93;;;2.23;;
4980;SDS011;2507;50.392;7.482;2024-01-27T00:18:12;5.90;;;2.30;;
4980;SDS011;2507;50.392;7.482;2024-01-27T00:20:37;5.13;;;2.57;;
4980;SDS011;2507;50.392;7.482;2024-01-27T00:23:03;8.23;;;3.27;;
4980;SDS011;2507;50.392;7.482;2024-01-27T00:25:28;9.10;;;2.83;;
4980;SDS011;2507;50.392;7.482;2024-01-27T00:27:54;4.83;;;2.30;;
4980;SDS011;2507;50.392;7.482;2024-01-27T00:30:19;8.60;;;4.20;;
4980;SDS011;2507;50.392;7.482;2024-01-27T00:32:44;6.27;;;3.70;;
4980;SDS011;2507;50.392;7.482;2024-01-27T00:35:10;7.93;;;2.63;;
4980;SDS011;2507;50.392;7.482;2024-01-27T00:37:39;10.67;;;2.50;;
4980;SDS011;2507;50.392;7.482;2024-01-27T00:40:06;15.90;;;2.60;;
4980;SDS011;2507;50.392;7.482;2024-01-27T00:42:33;12.33;;;2.37;;
4980;SDS011;2507;50.392;7.482;2024-01-27T00:44:58;6.37;;;1.80;;
4980;SDS011;2507;50.392;7.482;2024-01-27T00:47:23;5.87;;;2.07;;
4980;SDS011;2507;50.392;7.482;2024-01-27T00:49:49;12.63;;;2.60;;
4980;SDS011;2507;50.392;7.482;2024-01-27T00:52:14;5.57;;;2.33;;
4980;SDS011;2507;50.392;7.482;2024-01-27T00:54:39;10.50;;;2.90;;
4980;SDS011;2507;50.392;7.482;2024-01-27T00:57:05;5.63;;;2.43;;
4980;SDS011;2507;50.392;7.482;2024-01-27T00:59:30;7.33;;;2.17;;
4980;SDS011;2507;50.392;7.482;2024-01-27T01:01:55;9.03;;;2.70;;
4980;SDS011;2507;50.392;7.482;2024-01-27T01:04:21;15.83;;;3.83;;
4980;SDS011;2507;50.392;7.482;2024-01-27T01:06:46;9.00;;;2.50;;
4980;SDS011;2507;50.392;7.482;2024-01-27T01:09:11;3.93;;;2.23;;
4980;SDS011;2507;50.392;7.482;2024-01-27T01:11:37;10.27;;;2.37;;
4980;SDS011;2507;50.392;7.482;2024-01-27T01:14:02;10.43;;;2.20;;
4980;SDS011;2507;50.392;7.482;2024-01-27T01:16:27;13.03;;;2.43;;
4980;SDS011;2507;50.392;7.482;2024-01-27T01:18:52;5.63;;;2.50;;
4980;SDS011;2507;50.392;7.482;2024-01-27T01:21:18;8.63;;;3.10;;
4980;SDS011;2507;50.392;7.482;2024-01-27T01:23:43;10.43;;;2.50;;
4980;SDS011;2507;50.392;7.482;2024-01-27T01:26:08;6.67;;;2.40;;
4980;SDS011;2507;50.392;7.482;2024-01-27T01:28:34;7.30;;;2.03;;
4980;SDS011;2507;50.392;7.482;2024-01-27T01:30:59;5.37;;;1.60;;
4980;SDS011;2507;50.392;7.482;2024-01-27T01:33:24;3.33;;;1.93;;
4980;SDS011;2507;50.392;7.482;2024-01-27T01:35:50;7.60;;;2.40;;
4980;SDS011;2507;50.392;7.482;2024-01-27T01:38:15;7.80;;;1.97;;
4980;SDS011;2507;50.392;7.482;2024-01-27T01:40:40;11.47;;;2.47;;
4980;SDS011;2507;50.392;7.482;2024-01-27T01:43:09;6.13;;;2.20;;
4980;SDS011;2507;50.392;7.482;2024-01-27T01:45:36;7.70;;;2.33;;
4980;SDS011;2507;50.392;7.482;2024-01-27T01:48:01;4.83;;;2.10;;
4980;SDS011;2507;50.392;7.482;2024-01-27T01:50:27;7.33;;;1.53;;
4980;SDS011;2507;50.392;7.482;2024-01-27T01:52:52;7.40;;;2.90;;
4980;SDS011;2507;50.392;7.482;2024-01-27T01:55:18;9.47;;;2.57;;
4980;SDS011;2507;50.392;7.482;2024-01-27T01:57:44;9.43;;;2.50;;
4980;SDS011;2507;50.392;7.482;2024-01-27T02:00:10;12.60;;;1.67;;
4980;SDS011;2507;50.392;7.482;2024-01-27T02:02:36;12.13;;;2.40;;
4980;SDS011;2507;50.392;7.482;2024-01-27T02:05:01;8.47;;;2.27;;
4980;SDS011;2507;50.392;7.482;2024-01-27T02:07:26;7.70;;;2.03;;
4980;SDS011;2507;50.392;7.482;2024-01-27T02:09:52;8.30;;;2.43;;
4980;SDS011;2507;50.392;7.482;2024-01-27T02:12:17;3.90;;;1.43;;
4980;SDS011;2507;50.392;7.482;2024-01-27T02:14:42;3.47;;;1.53;;
4980;SDS011;2507;50.392;7.482;2024-01-27T02:17:08;11.70;;;2.23;;
4980;SDS011;2507;50.392;7.482;2024-01-27T02:19:33;4.57;;;2.17;;
4980;SDS011;2507;50.392;7.482;2024-01-27T02:21:58;10.53;;;2.27;;
4980;SDS011;2507;50.392;7.482;2024-01-27T02:24:23;12.57;;;2.40;;
4980;SDS011;2507;50.392;7.482;2024-01-27T02:26:49;12.10;;;2.20;;
4980;SDS011;2507;50.392;7.482;2024-01-27T02:29:14;8.67;;;2.17;;
4980;SDS011;2507;50.392;7.482;2024-01-27T02:31:39;7.93;;;2.13;;
4980;SDS011;2507;50.392;7.482;2024-01-27T02:34:05;11.30;;;2.60;;
4980;SDS011;2507;50.392;7.482;2024-01-27T02:36:30;5.70;;;2.40;;
4980;SDS011;2507;50.392;7.482;2024-01-27T02:38:55;6.90;;;1.90;;
4980;SDS011;2507;50.392;7.482;2024-01-27T02:41:20;5.20;;;2.10;;
4980;SDS011;2507;50.392;7.482;2024-01-27T02:43:46;5.93;;;2.10;;
4980;SDS011;2507;50.392;7.482;2024-01-27T02:46:11;10.47;;;2.50;;
4980;SDS011;2507;50.392;7.482;2024-01-27T02:48:40;5.70;;;2.10;;
4980;SDS011;2507;50.392;7.482;2024-01-27T02:51:09;5.50;;;2.17;;
4980;SDS011;2507;50.392;7.482;2024-01-27T02:53:35;11.47;;;2.87;;
4980;SDS011;2507;50.392;7.482;2024-01-27T02:56:00;5.27;;;2.10;;
4980;SDS011;2507;50.392;7.482;2024-01-27T02:58:26;6.33;;;2.97;;
4980;SDS011;2507;50.392;7.482;2024-01-27T03:00:51;9.33;;;2.80;;
4980;SDS011;2507;50.392;7.482;2024-01-27T03:03:16;8.20;;;2.63;;
4980;SDS011;2507;50.392;7.482;2024-01-27T03:05:42;6.20;;;2.70;;
4980;SDS011;2507;50.392;7.482;2024-01-27T03:08:07;9.63;;;3.30;;
4980;SDS011;2507;50.392;7.482;2024-01-27T03:10:32;11.17;;;2.47;;
4980;SDS011;2507;50.392;7.482;2024-01-27T03:12:58;6.20;;;2.33;;
4980;SDS011;2507;50.392;7.482;2024-01-27T03:15:23;7.33;;;2.80;;
4980;SDS011;2507;50.392;7.482;2024-01-27T03:17:48;10.63;;;2.87;;
4980;SDS011;2507;50.392;7.482;2024-01-27T03:20:14;6.30;;;2.83;;
4980;SDS011;2507;50.392;7.482;2024-01-27T03:22:39;12.50;;;2.70;;
4980;SDS011;2507;50.392;7.482;2024-01-27T03:25:06;9.53;;;2.60;;
4980;SDS011;2507;50.392;7.482;2024-01-27T03:27:32;6.63;;;2.30;;
4980;SDS011;2507;50.392;7.482;2024-01-27T03:30:01;5.93;;;2.70;;
4980;SDS011;2507;50.392;7.482;2024-01-27T03:32:28;9.97;;;2.77;;
4980;SDS011;2507;50.392;7.482;2024-01-27T03:34:56;8.03;;;2.63;;
4980;SDS011;2507;50.392;7.482;2024-01-27T03:37:22;9.37;;;2.57;;
4980;SDS011;2507;50.392;7.482;2024-01-27T03:39:48;11.13;;;2.83;;
4980;SDS011;2507;50.392;7.482;2024-01-27T03:42:13;8.87;;;2.13;;
4980;SDS011;2507;50.392;7.482;2024-01-27T03:44:38;5.70;;;2.60;;
4980;SDS011;2507;50.392;7.482;2024-01-27T03:47:03;3.77;;;2.10;;
4980;SDS011;2507;50.392;7.482;2024-01-27T03:49:29;4.20;;;2.10;;
4980;SDS011;2507;50.392;7.482;2024-01-27T03:51:54;5.07;;;2.17;;
4980;SDS011;2507;50.392;7.482;2024-01-27T03:54:19;8.60;;;2.63;;
4980;SDS011;2507;50.392;7.482;2024-01-27T03:56:44;7.40;;;2.27;;
4980;SDS011;2507;50.392;7.482;2024-01-27T03:59:10;8.10;;;2.10;;
4980;SDS011;2507;50.392;7.482;2024-01-27T04:01:36;8.33;;;2.80;;
4980;SDS011;2507;50.392;7.482;2024-01-27T04:04:01;13.20;;;2.83;;
4980;SDS011;2507;50.392;7.482;2024-01-27T04:06:27;11.23;;;2.80;;
4980;SDS011;2507;50.392;7.482;2024-01-27T04:08:52;4.00;;;2.30;;
4980;SDS011;2507;50.392;7.482;2024-01-27T04:11:20;9.10;;;2.83;;
4980;SDS011;2507;50.392;7.482;2024-01-27T04:13:47;11.20;;;2.37;;
4980;SDS011;2507;50.392;7.482;2024-01-27T04:16:13;8.50;;;3.23;;
4980;SDS011;2507;50.392;7.482;2024-01-27T04:18:38;10.30;;;2.90;;
4980;SDS011;2507;50.392;7.482;2024-01-27T04:21:04;6.27;;;2.97;;
4980;SDS011;2507;50.392;7.482;2024-01-27T04:23:29;10.43;;;3.70;;
4980;SDS011;2507;50.392;7.482;2024-01-27T04:25:55;6.70;;;2.83;;
4980;SDS011;2507;50.392;7.482;2024-01-27T04:28:20;5.80;;;3.10;;
4980;SDS011;2507;50.392;7.482;2024-01-27T04:30:45;3.97;;;2.20;;
4980;SDS011;2507;50.392;7.482;2024-01-27T04:33:11;5.70;;;2.90;;
4980;SDS011;2507;50.392;7.482;2024-01-27T04:35:37;6.30;;;2.30;;
4980;SDS011;2507;50.392;7.482;2024-01-27T04:38:02;9.73;;;3.43;;
4980;SDS011;2507;50.392;7.482;2024-01-27T04:40:28;7.03;;;2.50;;
4980;SDS011;2507;50.392;7.482;2024-01-27T04:42:53;7.00;;;2.50;;
4980;SDS011;2507;50.392;7.482;2024-01-27T04:45:18;6.67;;;2.37;;
4980;SDS011;2507;50.392;7.482;2024-01-27T04:47:44;8.23;;;2.90;;
4980;SDS011;2507;50.392;7.482;2024-01-27T04:50:09;7.80;;;2.67;;
4980;SDS011;2507;50.392;7.482;2024-01-27T04:52:34;7.17;;;2.30;;
4980;SDS011;2507;50.392;7.482;2024-01-27T04:55:00;6.23;;;3.17;;
4980;SDS011;2507;50.392;7.482;2024-01-27T04:57:26;8.10;;;2.77;;
4980;SDS011;2507;50.392;7.482;2024-01-27T04:59:51;8.00;;;2.23;;
4980;SDS011;2507;50.392;7.482;2024-01-27T05:02:17;6.37;;;2.90;;
4980;SDS011;2507;50.392;7.482;2024-01-27T05:04:42;7.93;;;3.03;;
4980;SDS011;2507;50.392;7.482;2024-01-27T05:07:08;11.50;;;3.70;;
4980;SDS011;2507;50.392;7.482;2024-01-27T05:09:33;11.03;;;3.63;;
4980;SDS011;2507;50.392;7.482;2024-01-27T05:11:59;3.23;;;2.93;;
4980;SDS011;2507;50.392;7.482;2024-01-27T05:14:25;4.97;;;2.87;;
4980;SDS011;2507;50.392;7.482;2024-01-27T05:16:50;7.67;;;3.30;;
4980;SDS011;2507;50.392;7.482;2024-01-27T05:19:15;6.83;;;3.17;;
4980;SDS011;2507;50.392;7.482;2024-01-27T05:21:42;10.90;;;2.93;;
4980;SDS011;2507;50.392;7.482;2024-01-27T05:24:08;6.77;;;3.40;;
4980;SDS011;2507;50.392;7.482;2024-01-27T05:26:33;8.53;;;3.60;;
4980;SDS011;2507;50.392;7.482;2024-01-27T05:28:58;7.93;;;3.60;;
4980;SDS011;2507;50.392;7.482;2024-01-27T05:31:25;9.80;;;3.43;;
4980;SDS011;2507;50.392;7.482;2024-01-27T05:33:50;10.53;;;4.40;;
4980;SDS011;2507;50.392;7.482;2024-01-27T05:36:16;8.53;;;4.03;;
4980;SDS011;2507;50.392;7.482;2024-01-27T05:38:41;15.37;;;5.63;;
4980;SDS011;2507;50.392;7.482;2024-01-27T05:41:06;12.57;;;7.30;;
4980;SDS011;2507;50.392;7.482;2024-01-27T05:43:32;20.53;;;10.33;;
4980;SDS011;2507;50.392;7.482;2024-01-27T05:45:57;26.67;;;12.10;;
4980;SDS011;2507;50.392;7.482;2024-01-27T05:48:22;26.70;;;12.87;;
4980;SDS011;2507;50.392;7.482;2024-01-27T05:51:00;20.03;;;5.10;;
4980;SDS011;2507;50.392;7.482;2024-01-27T05:53:26;9.47;;;4.93;;
4980;SDS011;2507;50.392;7.482;2024-01-27T05:55:52;10.73;;;4.90;;
4980;SDS011;2507;50.392;7.482;2024-01-27T05:58:19;13.87;;;5.70;;
4980;SDS011;2507;50.392;7.482;2024-01-27T06:00:47;9.50;;;4.60;;
4980;SDS011;2507;50.392;7.482;2024-01-27T06:03:13;7.57;;;4.10;;
4980;SDS011;2507;50.392;7.482;2024-01-27T06:05:38;11.13;;;4.90;;
4980;SDS011;2507;50.392;7.482;2024-01-27T06:08:04;9.00;;;4.40;;
4980;SDS011;2507;50.392;7.482;2024-01-27T06:10:30;10.83;;;4.57;;
4980;SDS011;2507;50.392;7.482;2024-01-27T06:12:56;10.17;;;4.00;;
4980;SDS011;2507;50.392;7.482;2024-01-27T06:15:21;6.67;;;3.90;;
4980;SDS011;2507;50.392;7.482;2024-01-27T06:17:47;6.27;;;3.67;;
4980;SDS011;2507;50.392;7.482;2024-01-27T06:20:12;5.47;;;3.60;;
4980;SDS011;2507;50.392;7.482;2024-01-27T06:22:37;10.67;;;3.73;;
4980;SDS011;2507;50.392;7.482;2024-01-27T06:25:03;4.70;;;3.40;;
4980;SDS011;2507;50.392;7.482;2024-01-27T06:27:28;6.80;;;4.30;;
4980;SDS011;2507;50.392;7.482;2024-01-27T06:29:54;14.53;;;4.80;;
4980;SDS011;2507;50.392;7.482;2024-01-27T06:32:19;9.50;;;5.60;;
4980;SDS011;2507;50.392;7.482;2024-01-27T06:34:44;10.90;;;5.07;;
4980;SDS011;2507;50.392;7.482;2024-01-27T06:37:09;7.50;;;4.20;;
4980;SDS011;2507;50.392;7.482;2024-01-27T06:39:35;5.90;;;3.80;;
4980;SDS011;2507;50.392;7.482;2024-01-27T06:42:00;5.50;;;3.30;;
4980;SDS011;2507;50.392;7.482;2024-01-27T06:44:25;9.83;;;4.07;;
4980;SDS011;2507;50.392;7.482;2024-01-27T06:46:50;3.80;;;3.20;;
4980;SDS011;2507;50.392;7.482;2024-01-27T06:49:16;6.23;;;4.03;;
4980;SDS011;2507;50.392;7.482;2024-01-27T06:51:41;5.00;;;3.77;;
4980;SDS011;2507;50.392;7.482;2024-01-27T06:54:08;5.40;;;4.20;;
4980;SDS011;2507;50.392;7.482;2024-01-27T06:56:33;11.70;;;5.07;;
4980;SDS011;2507;50.392;7.482;2024-01-27T06:58:59;45.23;;;13.30;;
4980;SDS011;2507;50.392;7.482;2024-01-27T07:01:24;44.77;;;16.67;;
4980;SDS011;2507;50.392;7.482;2024-01-27T07:03:49;24.63;;;11.90;;
4980;SDS011;2507;50.392;7.482;2024-01-27T07:06:14;12.70;;;4.90;;
4980;SDS011;2507;50.392;7.482;2024-01-27T07:08:40;7.37;;;4.30;;
4980;SDS011;2507;50.392;7.482;2024-01-27T07:11:05;11.17;;;6.30;;
4980;SDS011;2507;50.392;7.482;2024-01-27T07:13:30;15.80;;;6.50;;
4980;SDS011;2507;50.392;7.482;2024-01-27T07:15:56;22.17;;;7.40;;
4980;SDS011;2507;50.392;7.482;2024-01-27T07:18:22;13.40;;;6.27;;
4980;SDS011;2507;50.392;7.482;2024-01-27T07:20:49;22.57;;;13.93;;
4980;SDS011;2507;50.392;7.482;2024-01-27T07:23:14;26.40;;;11.70;;
4980;SDS011;2507;50.392;7.482;2024-01-27T07:25:39;12.83;;;8.57;;
4980;SDS011;2507;50.392;7.482;2024-01-27T07:28:04;23.43;;;12.57;;
4980;SDS011;2507;50.392;7.482;2024-01-27T07:30:30;17.80;;;9.90;;
4980;SDS011;2507;50.392;7.482;2024-01-27T07:32:56;21.93;;;13.33;;
4980;SDS011;2507;50.392;7.482;2024-01-27T07:35:21;14.80;;;9.90;;
4980;SDS011;2507;50.392;7.482;2024-01-27T07:37:46;16.67;;;9.10;;
4980;SDS011;2507;50.392;7.482;2024-01-27T07:40:12;12.00;;;7.23;;
4980;SDS011;2507;50.392;7.482;2024-01-27T07:42:37;14.60;;;5.50;;
4980;SDS011;2507;50.392;7.482;2024-01-27T07:45:02;12.73;;;4.80;;
4980;SDS011;2507;50.392;7.482;2024-01-27T07:47:28;13.90;;;5.20;;
4980;SDS011;2507;50.392;7.482;2024-01-27T07:49:53;8.37;;;4.00;;
4980;SDS011;2507;50.392;7.482;2024-01-27T07:52:19;10.47;;;4.93;;
4980;SDS011;2507;50.392;7.482;2024-01-27T07:54:45;16.00;;;6.53;;
4980;SDS011;2507;50.392;7.482;2024-01-27T07:57:10;11.87;;;5.47;;
4980;SDS011;2507;50.392;7.482;2024-01-27T07:59:37;10.50;;;4.30;;
4980;SDS011;2507;50.392;7.482;2024-01-27T08:02:02;11.60;;;5.10;;
4980;SDS011;2507;50.392;7.482;2024-01-27T08:04:27;9.47;;;4.63;;
4980;SDS011;2507;50.392;7.482;2024-01-27T08:06:53;15.43;;;3.93;;
4980;SDS011;2507;50.392;7.482;2024-01-27T08:09:18;7.47;;;4.50;;
4980;SDS011;2507;50.392;7.482;2024-01-27T08:11:44;7.23;;;4.57;;
4980;SDS011;2507;50.392;7.482;2024-01-27T08:14:10;7.30;;;4.87;;
4980;SDS011;2507;50.392;7.482;2024-01-27T08:16:35;8.80;;;4.63;;
4980;SDS011;2507;50.392;7.482;2024-01-27T08:19:01;8.80;;;4.80;;
4980;SDS011;2507;50.392;7.482;2024-01-27T08:21:26;8.00;;;5.37;;
4980;SDS011;2507;50.392;7.482;2024-01-27T08:23:52;9.70;;;5.93;;
4980;SDS011;2507;50.392;7.482;2024-01-27T08:26:18;10.50;;;5.30;;
4980;SDS011;2507;50.392;7.482;2024-01-27T08:28:45;10.33;;;5.20;;
4980;SDS011;2507;50.392;7.482;2024-01-27T08:31:11;16.83;;;6.60;;
4980;SDS011;2507;50.392;7.482;2024-01-27T08:33:36;9.97;;;5.53;;
4980;SDS011;2507;50.392;7.482;2024-01-27T08:36:01;15.73;;;9.20;;
4980;SDS011;2507;50.392;7.482;2024-01-27T08:38:27;18.30;;;9.47;;
4980;SDS011;2507;50.392;7.482;2024-01-27T08:40:52;16.13;;;9.43;;
4980;SDS011;2507;50.392;7.482;2024-01-27T08:43:18;14.53;;;7.97;;
4980;SDS011;2507;50.392;7.482;2024-01-27T08:45:43;6.03;;;4.73;;
4980;SDS011;2507;50.392;7.482;2024-01-27T08:48:08;16.50;;;7.33;;
4980;SDS011;2507;50.392;7.482;2024-01-27T08:50:34;12.33;;;6.53;;
4980;SDS011;2507;50.392;7.482;2024-01-27T08:53:00;16.23;;;8.10;;
4980;SDS011;2507;50.392;7.482;2024-01-27T08:55:25;12.20;;;7.50;;
4980;SDS011;2507;50.392;7.482;2024-01-27T08:57:50;9.50;;;7.77;;
4980;SDS011;2507;50.392;7.482;2024-01-27T09:00:16;13.77;;;8.10;;
4980;SDS011;2507;50.392;7.482;2024-01-27T09:02:44;13.03;;;9.23;;
4980;SDS011;2507;50.392;7.482;2024-01-27T09:05:10;8.30;;;7.00;;
4980;SDS011;2507;50.392;7.482;2024-01-27T09:07:35;10.17;;;7.10;;
4980;SDS011;2507;50.392;7.482;2024-01-27T09:10:01;14.07;;;8.03;;
4980;SDS011;2507;50.392;7.482;2024-01-27T09:12:27;15.33;;;6.80;;
4980;SDS011;2507;50.392;7.482;2024-01-27T09:14:52;15.50;;;6.80;;
4980;SDS011;2507;50.392;7.482;2024-01-27T09:17:19;15.93;;;6.90;;
4980;SDS011;2507;50.392;7.482;2024-01-27T09:19:44;10.10;;;6.43;;
4980;SDS011;2507;50.392;7.482;2024-01-27T09:22:10;9.80;;;5.13;;
4980;SDS011;2507;50.392;7.482;2024-01-27T09:24:35;11.10;;;6.57;;
4980;SDS011;2507;50.392;7.482;2024-01-27T09:27:00;11.00;;;5.20;;
4980;SDS011;2507;50.392;7.482;2024-01-27T09:29:26;11.27;;;5.47;;
4980;SDS011;2507;50.392;7.482;2024-01-27T09:31:52;12.87;;;7.50;;
4980;SDS011;2507;50.392;7.482;2024-01-27T09:34:17;12.20;;;6.40;;
4980;SDS011;2507;50.392;7.482;2024-01-27T09:36:42;20.83;;;7.60;;
4980;SDS011;2507;50.392;7.482;2024-01-27T09:39:08;15.20;;;6.60;;
4980;SDS011;2507;50.392;7.482;2024-01-27T09:41:33;10.03;;;5.97;;
4980;SDS011;2507;50.392;7.482;2024-01-27T09:43:59;12.50;;;6.37;;
4980;SDS011;2507;50.392;7.482;2024-01-27T09:46:27;16.40;;;7.50;;
4980;SDS011;2507;50.392;7.482;2024-01-27T09:48:52;10.50;;;5.83;;
4980;SDS011;2507;50.392;7.482;2024-01-27T09:51:18;13.87;;;7.43;;
4980;SDS011;2507;50.392;7.482;2024-01-27T09:53:44;9.17;;;5.00;;
4980;SDS011;2507;50.392;7.482;2024-01-27T09:56:10;11.23;;;7.10;;
4980;SDS011;2507;50.392;7.482;2024-01-27T09:58:37;9.93;;;5.60;;
4980;SDS011;2507;50.392;7.482;2024-01-27T10:01:02;15.50;;;5.70;;
4980;SDS011;2507;50.392;7.482;2024-01-27T10:03:28;8.53;;;5.90;;
4980;SDS011;2507;50.392;7.482;2024-01-27T10:05:55;7.93;;;5.30;;
4980;SDS011;2507;50.392;7.482;2024-01-27T10:08:22;12.20;;;6.03;;
4980;SDS011;2507;50.392;7.482;2024-01-27T10:10:53;19.00;;;6.20;;
4980;SDS011;2507;50.392;7.482;2024-01-27T10:13:20;9.70;;;4.90;;
4980;SDS011;2507;50.392;7.482;2024-01-27T10:16:03;12.33;;;5.23;;
4980;SDS011;2507;50.392;7.482;2024-01-27T10:18:29;7.57;;;5.13;;
4980;SDS011;2507;50.392;7.482;2024-01-27T10:20:55;10.23;;;4.80;;
4980;SDS011;2507;50.392;7.482;2024-01-27T10:23:21;13.30;;;5.50;;
4980;SDS011;2507;50.392;7.482;2024-01-27T10:25:46;13.47;;;5.37;;
4980;SDS011;2507;50.392;7.482;2024-01-27T10:28:12;11.10;;;5.07;;
4980;SDS011;2507;50.392;7.482;2024-01-27T10:30:37;9.90;;;5.50;;
4980;SDS011;2507;50.392;7.482;2024-01-27T10:33:03;9.97;;;5.27;;
4980;SDS011;2507;50.392;7.482;2024-01-27T10:35:29;11.00;;;4.97;;
4980;SDS011;2507;50.392;7.482;2024-01-27T10:37:54;11.83;;;5.53;;
4980;SDS011;2507;50.392;7.482;2024-01-27T10:40:20;10.90;;;6.63;;
4980;SDS011;2507;50.392;7.482;2024-01-27T10:42:49;10.83;;;5.87;;
4980;SDS011;2507;50.392;7.482;2024-01-27T10:45:26;10.50;;;5.67;;
4980;SDS011;2507;50.392;7.482;2024-01-27T10:47:52;13.10;;;5.73;;
4980;SDS011;2507;50.392;7.482;2024-01-27T10:50:21;9.10;;;4.73;;
4980;SDS011;2507;50.392;7.482;2024-01-27T10:52:48;7.57;;;5.30;;
4980;SDS011;2507;50.392;7.482;2024-01-27T10:55:15;7.90;;;4.90;;
4980;SDS011;2507;50.392;7.482;2024-01-27T10:57:41;13.27;;;5.70;;
4980;SDS011;2507;50.392;7.482;2024-01-27T11:00:07;9.57;;;5.33;;
4980;SDS011;2507;50.392;7.482;2024-01-27T11:02:34;15.03;;;6.30;;
4980;SDS011;2507;50.392;7.482;2024-01-27T11:05:02;9.80;;;5.80;;
4980;SDS011;2507;50.392;7.482;2024-01-27T11:07:30;8.27;;;5.67;;
4980;SDS011;2507;50.392;7.482;2024-01-27T11:09:57;8.90;;;5.67;;
4980;SDS011;2507;50.392;7.482;2024-01-27T11:12:22;11.43;;;6.27;;
4980;SDS011;2507;50.392;7.482;2024-01-27T11:14:49;7.03;;;5.30;;
4980;SDS011;2507;50.392;7.482;2024-01-27T11:17:16;11.03;;;5.50;;
4980;SDS011;2507;50.392;7.482;2024-01-27T11:19:42;13.60;;;6.10;;
4980;SDS011;2507;50.392;7.482;2024-01-27T11:22:07;9.47;;;5.53;;
4980;SDS011;2507;50.392;7.482;2024-01-27T11:24:33;9.30;;;5.10;;
4980;SDS011;2507;50.392;7.482;2024-01-27T11:27:05;8.70;;;5.47;;
4980;SDS011;2507;50.392;7.482;2024-01-27T11:29:31;8.57;;;5.47;;
4980;SDS011;2507;50.392;7.482;2024-01-27T11:31:59;11.47;;;5.73;;
4980;SDS011;2507;50.392;7.482;2024-01-27T11:34:25;13.40;;;6.73;;
4980;SDS011;2507;50.392;7.482;2024-01-27T11:36:51;7.47;;;5.20;;
4980;SDS011;2507;50.392;7.482;2024-01-27T11:39:23;10.00;;;6.20;;
4980;SDS011;2507;50.392;7.482;2024-01-27T11:41:48;9.80;;;5.13;;
4980;SDS011;2507;50.392;7.482;2024-01-27T11:44:13;9.17;;;5.33;;
4980;SDS011;2507;50.392;7.482;2024-01-27T11:46:40;13.37;;;6.33;;
4980;SDS011;2507;50.392;7.482;2024-01-27T11:49:06;14.10;;;5.87;;
4980;SDS011;2507;50.392;7.482;2024-01-27T11:51:31;10.03;;;5.30;;
4980;SDS011;2507;50.392;7.482;2024-01-27T11:53:56;8.40;;;5.27;;
4980;SDS011;2507;50.392;7.482;2024-01-27T11:56:22;6.23;;;5.40;;
4980;SDS011;2507;50.392;7.482;2024-01-27T11:58:48;8.37;;;5.50;;
4980;SDS011;2507;50.392;7.482;2024-01-27T12:01:14;5.20;;;4.70;;
4980;SDS011;2507;50.392;7.482;2024-01-27T12:03:40;10.10;;;6.67;;
4980;SDS011;2507;50.392;7.482;2024-01-27T12:06:06;10.43;;;6.13;;
4980;SDS011;2507;50.392;7.482;2024-01-27T12:08:34;6.00;;;4.80;;
4980;SDS011;2507;50.392;7.482;2024-01-27T12:11:00;10.33;;;5.30;;
4980;SDS011;2507;50.392;7.482;2024-01-27T12:13:26;7.67;;;5.13;;
4980;SDS011;2507;50.392;7.482;2024-01-27T12:15:52;11.37;;;6.40;;
4980;SDS011;2507;50.392;7.482;2024-01-27T12:18:17;8.43;;;4.80;;
4980;SDS011;2507;50.392;7.482;2024-01-27T12:20:43;15.47;;;6.00;;
4980;SDS011;2507;50.392;7.482;2024-01-27T12:23:09;10.73;;;5.73;;
4980;SDS011;2507;50.392;7.482;2024-01-27T12:25:35;8.57;;;5.30;;
4980;SDS011;2507;50.392;7.482;2024-01-27T12:28:04;10.20;;;4.70;;
4980;SDS011;2507;50.392;7.482;2024-01-27T12:30:32;12.17;;;5.87;;
4980;SDS011;2507;50.392;7.482;2024-01-27T12:32:58;10.10;;;5.60;;
4980;SDS011;2507;50.392;7.482;2024-01-27T12:35:25;9.57;;;5.20;;
4980;SDS011;2507;50.392;7.482;2024-01-27T12:37:51;9.90;;;5.10;;
4980;SDS011;2507;50.392;7.482;2024-01-27T12:40:18;8.90;;;5.10;;
4980;SDS011;2507;50.392;7.482;2024-01-27T12:42:45;9.93;;;5.20;;
4980;SDS011;2507;50.392;7.482;2024-01-27T12:45:10;13.00;;;4.70;;
4980;SDS011;2507;50.392;7.482;2024-01-27T12:47:36;7.90;;;4.43;;
4980;SDS011;2507;50.392;7.482;2024-01-27T12:50:01;10.43;;;5.43;;
4980;SDS011;2507;50.392;7.482;2024-01-27T12:52:27;9.03;;;4.63;;
4980;SDS011;2507;50.392;7.482;2024-01-27T12:54:52;9.67;;;5.30;;
4980;SDS011;2507;50.392;7.482;2024-01-27T12:57:18;6.97;;;4.60;;
4980;SDS011;2507;50.392;7.482;2024-01-27T12:59:44;15.00;;;5.27;;
4980;SDS011;2507;50.392;7.482;2024-01-27T13:02:09;7.53;;;4.97;;
4980;SDS011;2507;50.392;7.482;2024-01-27T13:04:35;9.43;;;4.70;;
4980;SDS011;2507;50.392;7.482;2024-01-27T13:07:00;16.97;;;6.00;;
4980;SDS011;2507;50.392;7.482;2024-01-27T13:09:25;10.20;;;5.00;;
4980;SDS011;2507;50.392;7.482;2024-01-27T13:11:51;9.13;;;5.00;;
4980;SDS011;2507;50.392;7.482;2024-01-27T13:14:16;11.03;;;4.13;;
4980;SDS011;2507;50.392;7.482;2024-01-27T13:16:43;6.60;;;4.10;;
4980;SDS011;2507;50.392;7.482;2024-01-27T13:19:09;10.13;;;4.60;;
4980;SDS011;2507;50.392;7.482;2024-01-27T13:21:34;8.50;;;4.77;;
4980;SDS011;2507;50.392;7.482;2024-01-27T13:23:59;10.53;;;5.07;;
4980;SDS011;2507;50.392;7.482;2024-01-27T13:26:24;10.17;;;4.30;;
4980;SDS011;2507;50.392;7.482;2024-01-27T13:28:50;6.17;;;4.83;;
4980;SDS011;2507;50.392;7.482;2024-01-27T13:31:15;9.80;;;5.53;;
4980;SDS011;2507;50.392;7.482;2024-01-27T13:33:41;7.03;;;4.03;;
4980;SDS011;2507;50.392;7.482;2024-01-27T13:36:06;11.20;;;5.10;;
4980;SDS011;2507;50.392;7.482;2024-01-27T13:38:31;6.03;;;4.63;;
4980;SDS011;2507;50.392;7.482;2024-01-27T13:40:57;7.77;;;3.67;;
4980;SDS011;2507;50.392;7.482;2024-01-27T13:43:22;11.83;;;4.70;;
4980;SDS011;2507;50.392;7.482;2024-01-27T13:45:47;10.20;;;4.67;;
4980;SDS011;2507;50.392;7.482;2024-01-27T13:48:13;16.23;;;6.70;;
4980;SDS011;2507;50.392;7.482;2024-01-27T13:50:38;15.03;;;5.67;;
4980;SDS011;2507;50.392;7.482;2024-01-27T13:53:03;10.40;;;4.40;;
4980;SDS011;2507;50.392;7.482;2024-01-27T13:55:30;7.90;;;4.10;;
4980;SDS011;2507;50.392;7.482;2024-01-27T13:57:55;9.70;;;4.10;;
4980;SDS011;2507;50.392;7.482;2024-01-27T14:00:21;10.73;;;3.90;;
4980;SDS011;2507;50.392;7.482;2024-01-27T14:02:46;7.33;;;4.10;;
4980;SDS011;2507;50.392;7.482;2024-01-27T14:05:11;9.50;;;4.33;;
4980;SDS011;2507;50.392;7.482;2024-01-27T14:07:37;7.80;;;3.77;;
4980;SDS011;2507;50.392;7.482;2024-01-27T14:10:02;7.37;;;3.47;;
4980;SDS011;2507;50.392;7.482;2024-01-27T14:12:28;11.53;;;3.77;;
4980;SDS011;2507;50.392;7.482;2024-01-27T14:15:01;8.73;;;3.97;;
4980;SDS011;2507;50.392;7.482;2024-01-27T14:17:29;13.93;;;3.40;;
4980;SDS011;2507;50.392;7.482;2024-01-27T14:19:55;9.30;;;4.50;;
4980;SDS011;2507;50.392;7.482;2024-01-27T14:22:20;9.67;;;4.60;;
4980;SDS011;2507;50.392;7.482;2024-01-27T14:24:45;7.27;;;3.77;;
4980;SDS011;2507;50.392;7.482;2024-01-27T14:27:10;13.30;;;4.53;;
4980;SDS011;2507;50.392;7.482;2024-01-27T14:29:36;11.40;;;4.00;;
4980;SDS011;2507;50.392;7.482;2024-01-27T14:32:02;16.80;;;4.93;;
4980;SDS011;2507;50.392;7.482;2024-01-27T14:34:27;9.33;;;3.90;;
4980;SDS011;2507;50.392;7.482;2024-01-27T14:36:53;6.90;;;3.97;;
4980;SDS011;2507;50.392;7.482;2024-01-27T14:39:20;5.83;;;3.90;;
4980;SDS011;2507;50.392;7.482;2024-01-27T14:41:45;14.57;;;4.00;;
4980;SDS011;2507;50.392;7.482;2024-01-27T14:44:10;8.13;;;3.70;;
4980;SDS011;2507;50.392;7.482;2024-01-27T14:46:36;9.80;;;4.30;;
4980;SDS011;2507;50.392;7.482;2024-01-27T14:49:05;10.83;;;4.30;;
4980;SDS011;2507;50.392;7.482;2024-01-27T14:51:33;12.70;;;4.60;;
4980;SDS011;2507;50.392;7.482;2024-01-27T14:54:00;10.70;;;4.20;;
4980;SDS011;2507;50.392;7.482;2024-01-27T14:56:29;15.60;;;4.90;;
4980;SDS011;2507;50.392;7.482;2024-01-27T14:58:58;11.80;;;4.17;;